Terminal Aerodrome Forecast
Issued by NWS Detroit/Pontiac, MI

Home | Current Version | Previous Version | Text Only | Print | Product List | Glossary On
Versions: 1 2 3 4 5 6 7 8 9 10 11 12 13 14 15 16 17 18 19 20 21 22 23 24 25 26 27
000
FTUS43 KDTX 211500 AAA
TAFDTW
TAF AMD
KDTW 211504Z 2115/2218 17005KT P6SM SCT150 BKN250
     FM211700 21009KT P6SM OVC150
     FM220300 25008KT P6SM -SHRA SCT050 BKN070
     FM220800 29011KT 3SM -SHRA BKN025 OVC040
     FM221000 30013KT P6SM SCT040 BKN080
     FM221300 31017G23KT P6SM SCT080=

USA.gov is the U.S. government's official web portal to all federal, state and local government web resources and services.